createdAt,value
2023-03-31T00:00:58.136Z,9.50
2023-03-31T00:03:26.604Z,9.40
2023-03-31T00:05:59.177Z,9.40
2023-03-31T00:08:35.754Z,9.50
2023-03-31T00:11:05.433Z,9.50
2023-03-31T00:13:32.804Z,9.40
2023-03-31T00:16:03.578Z,9.40
2023-03-31T00:18:34.877Z,9.50
2023-03-31T00:21:24.639Z,9.40
2023-03-31T00:24:04.629Z,9.40
2023-03-31T00:26:33.115Z,9.40
2023-03-31T00:29:00.606Z,9.40
2023-03-31T00:31:28.127Z,9.40
2023-03-31T00:33:55.833Z,9.40
2023-03-31T00:36:36.590Z,9.40
2023-03-31T00:39:09.844Z,9.40
2023-03-31T00:41:39.214Z,9.40
2023-03-31T00:44:06.670Z,9.40
2023-03-31T00:46:52.520Z,9.30
2023-03-31T00:49:40.334Z,9.30
2023-03-31T00:52:30.595Z,9.30
2023-03-31T00:55:10.125Z,9.30
2023-03-31T00:57:40.326Z,9.30
2023-03-31T01:00:23.229Z,9.30
2023-03-31T01:02:56.210Z,9.30
2023-03-31T01:05:34.989Z,9.20
2023-03-31T01:08:05.657Z,9.20
2023-03-31T01:10:41.947Z,9.10
2023-03-31T01:13:11.632Z,9.00
2023-03-31T01:15:39.676Z,8.80
2023-03-31T01:18:07.573Z,8.70
2023-03-31T01:20:45.373Z,8.50
2023-03-31T01:24:24.201Z,8.40
2023-03-31T01:27:15.535Z,8.20
2023-03-31T01:30:02.705Z,8.10
2023-03-31T01:32:41.746Z,8.00
2023-03-31T01:35:39.705Z,8.00
2023-03-31T01:38:09.738Z,8.10
2023-03-31T01:40:39.684Z,8.20
2023-03-31T01:43:10.764Z,8.30
2023-03-31T01:46:07.086Z,8.40
2023-03-31T01:49:03.855Z,8.40
2023-03-31T01:51:42.037Z,8.30
2023-03-31T01:54:45.619Z,8.30
2023-03-31T01:57:31.149Z,8.20
2023-03-31T02:00:05.811Z,8.10
2023-03-31T02:02:37.755Z,7.90
2023-03-31T02:05:14.254Z,7.80
2023-03-31T02:07:50.849Z,7.80
2023-03-31T02:10:19.654Z,7.70
2023-03-31T02:12:47.804Z,7.60
2023-03-31T02:15:22.246Z,7.60
2023-03-31T02:17:54.707Z,7.60
2023-03-31T02:20:23.280Z,7.60
2023-03-31T02:22:54.699Z,7.70
2023-03-31T02:25:32.148Z,7.80
2023-03-31T02:28:11.367Z,7.80
2023-03-31T02:31:11.670Z,7.90
2023-03-31T02:33:38.921Z,7.90
2023-03-31T02:36:07.633Z,7.90
2023-03-31T02:38:39.446Z,7.90
2023-03-31T02:41:07.674Z,7.90
2023-03-31T02:43:34.693Z,7.90
2023-03-31T02:46:02.017Z,7.90
2023-03-31T02:48:36.122Z,8.00
2023-03-31T02:51:16.541Z,8.00
2023-03-31T02:54:18.038Z,8.00
2023-03-31T02:57:00.472Z,8.00
2023-03-31T02:59:45.421Z,8.10
2023-03-31T03:02:51.048Z,8.10
2023-03-31T03:05:26.766Z,8.10
2023-03-31T03:08:19.007Z,8.10
2023-03-31T03:11:04.064Z,8.10
2023-03-31T03:13:39.634Z,8.10
2023-03-31T03:16:24.578Z,8.10
2023-03-31T03:19:00.270Z,8.10
2023-03-31T03:21:28.449Z,8.00
2023-03-31T03:23:56.526Z,8.00
2023-03-31T03:26:24.041Z,7.90
2023-03-31T03:28:51.740Z,7.80
2023-03-31T03:31:19.816Z,7.80
2023-03-31T03:33:47.239Z,7.80
2023-03-31T03:36:14.269Z,7.80
2023-03-31T03:38:42.040Z,7.80
2023-03-31T03:41:10.221Z,7.80
2023-03-31T03:43:37.489Z,7.80
2023-03-31T03:46:05.628Z,7.90
2023-03-31T03:48:33.837Z,7.90
2023-03-31T03:51:01.659Z,8.00
2023-03-31T03:53:28.973Z,8.00
2023-03-31T03:55:56.050Z,8.00
2023-03-31T03:58:23.542Z,8.10
2023-03-31T04:00:50.855Z,8.00
2023-03-31T04:03:18.671Z,8.00
2023-03-31T04:05:49.844Z,8.00
2023-03-31T04:08:18.412Z,8.00
2023-03-31T04:10:46.644Z,8.10
2023-03-31T04:13:13.909Z,8.00
2023-03-31T04:15:41.248Z,8.00
2023-03-31T04:18:11.330Z,8.00
2023-03-31T04:20:39.050Z,7.90
2023-03-31T04:23:09.758Z,7.90
2023-03-31T04:25:38.659Z,7.90
2023-03-31T04:28:07.098Z,7.90
2023-03-31T04:30:34.155Z,7.80
2023-03-31T04:33:04.373Z,7.80
2023-03-31T04:35:50.289Z,7.80
2023-03-31T04:38:22.024Z,7.80
2023-03-31T04:40:50.991Z,7.80
2023-03-31T04:43:20.184Z,7.80
2023-03-31T04:45:47.519Z,7.80
2023-03-31T04:48:14.933Z,7.80
2023-03-31T04:50:42.012Z,7.80
2023-03-31T04:53:09.687Z,7.80
2023-03-31T04:55:36.741Z,7.90
2023-03-31T04:58:04.056Z,7.90
2023-03-31T05:00:31.195Z,7.90
2023-03-31T05:03:00.077Z,7.90
2023-03-31T05:05:27.171Z,8.00
2023-03-31T05:07:54.515Z,8.00
2023-03-31T05:10:21.796Z,8.10
2023-03-31T05:12:49.464Z,8.10
2023-03-31T05:15:16.788Z,8.10
2023-03-31T05:17:45.054Z,8.20
2023-03-31T05:20:13.630Z,8.30
2023-03-31T05:22:43.852Z,8.30
2023-03-31T05:25:11.998Z,8.40
2023-03-31T05:27:39.269Z,8.40
2023-03-31T05:30:08.236Z,8.50
2023-03-31T05:32:35.896Z,8.50
2023-03-31T05:35:02.976Z,8.50
2023-03-31T05:37:30.731Z,8.60
2023-03-31T05:39:58.035Z,8.60
2023-03-31T05:42:25.608Z,8.60
2023-03-31T05:44:52.815Z,8.70
2023-03-31T05:47:20.146Z,8.70
2023-03-31T05:49:47.136Z,8.70
2023-03-31T05:52:14.598Z,8.80
2023-03-31T05:54:42.855Z,8.70
2023-03-31T05:57:10.504Z,8.80
2023-03-31T05:59:38.465Z,8.80
2023-03-31T06:02:05.948Z,8.80
2023-03-31T06:04:33.141Z,8.80
2023-03-31T06:07:00.596Z,8.80
2023-03-31T06:09:28.618Z,8.80
2023-03-31T06:11:56.010Z,8.90
2023-03-31T06:14:23.449Z,8.90
2023-03-31T06:16:50.960Z,9.00
2023-03-31T06:19:18.050Z,9.00
2023-03-31T06:21:45.402Z,9.20
2023-03-31T06:24:12.377Z,9.20
2023-03-31T06:26:40.139Z,9.40
2023-03-31T06:29:07.161Z,9.40
2023-03-31T06:31:34.555Z,9.60
2023-03-31T06:34:01.571Z,9.60
2023-03-31T06:36:28.868Z,9.80
2023-03-31T06:38:55.897Z,9.70
2023-03-31T06:41:23.535Z,9.80
2023-03-31T06:43:50.674Z,9.90
2023-03-31T06:46:18.614Z,9.90
2023-03-31T06:48:46.042Z,10.00
2023-03-31T06:51:13.609Z,10.00
2023-03-31T06:53:40.879Z,10.00
2023-03-31T06:56:08.667Z,10.00
2023-03-31T06:58:37.470Z,10.00
2023-03-31T07:01:06.482Z,10.00
2023-03-31T07:03:34.269Z,10.30
2023-03-31T07:06:01.882Z,10.40
2023-03-31T07:08:29.023Z,10.50
2023-03-31T07:10:58.997Z,10.50
2023-03-31T07:13:26.789Z,10.60
2023-03-31T07:15:54.480Z,10.60
2023-03-31T07:18:25.971Z,10.60
2023-03-31T07:20:53.656Z,10.60
2023-03-31T07:23:21.314Z,10.80
2023-03-31T07:25:49.054Z,10.90
2023-03-31T07:28:16.646Z,10.90
2023-03-31T07:30:44.250Z,11.00
2023-03-31T07:33:11.470Z,11.10
2023-03-31T07:35:40.997Z,11.10
2023-03-31T07:38:10.398Z,11.10
2023-03-31T07:40:38.092Z,11.20
2023-03-31T07:43:05.958Z,11.40
2023-03-31T07:45:33.866Z,11.40
2023-03-31T07:48:00.846Z,11.40
2023-03-31T07:50:28.362Z,11.30
2023-03-31T07:52:55.552Z,11.20
2023-03-31T07:55:23.894Z,11.20
2023-03-31T07:57:51.459Z,11.20
2023-03-31T08:00:19.536Z,11.20
2023-03-31T08:02:46.731Z,11.30
2023-03-31T08:05:17.800Z,11.40
2023-03-31T08:07:47.416Z,11.60
2023-03-31T08:10:21.837Z,11.80
2023-03-31T08:12:49.015Z,11.90
2023-03-31T08:15:17.246Z,12.00
2023-03-31T08:17:45.365Z,12.10
2023-03-31T08:20:13.009Z,12.30
2023-03-31T08:22:41.085Z,12.40
2023-03-31T08:25:09.398Z,12.40
2023-03-31T08:27:38.386Z,12.30
2023-03-31T08:30:08.365Z,12.30
2023-03-31T08:32:36.003Z,12.30
2023-03-31T08:35:04.324Z,12.30
2023-03-31T08:37:32.417Z,12.30
2023-03-31T08:40:00.439Z,12.30
2023-03-31T08:42:55.493Z,12.40
2023-03-31T08:45:29.957Z,12.40
2023-03-31T08:48:11.076Z,12.50
2023-03-31T08:50:47.412Z,12.40
2023-03-31T08:53:20.699Z,12.50
2023-03-31T08:55:52.062Z,12.70
2023-03-31T08:58:24.537Z,12.80
2023-03-31T09:01:17.130Z,13.10
2023-03-31T09:04:11.909Z,13.20
2023-03-31T09:06:49.826Z,13.40
2023-03-31T09:09:55.078Z,13.60
2023-03-31T09:12:54.997Z,13.60
2023-03-31T09:15:27.846Z,13.60
2023-03-31T09:18:00.843Z,13.70
2023-03-31T09:20:36.320Z,14.00
2023-03-31T09:23:21.526Z,14.20
2023-03-31T09:25:51.535Z,14.50
2023-03-31T09:28:29.625Z,14.70
2023-03-31T09:30:57.225Z,14.80
2023-03-31T09:33:32.293Z,14.80
2023-03-31T09:36:01.082Z,14.80
2023-03-31T09:38:29.868Z,14.70
2023-03-31T09:40:59.030Z,14.60
2023-03-31T09:43:31.657Z,14.60
2023-03-31T09:46:09.098Z,14.60
2023-03-31T09:48:39.277Z,14.70
2023-03-31T09:51:13.597Z,14.80
2023-03-31T09:53:44.082Z,15.00
2023-03-31T09:56:11.655Z,15.00
2023-03-31T09:58:44.084Z,15.20
2023-03-31T10:01:13.036Z,15.30
2023-03-31T10:03:56.144Z,15.20
2023-03-31T10:06:24.785Z,15.40
2023-03-31T10:08:57.738Z,15.30
2023-03-31T10:11:27.253Z,15.40
2023-03-31T10:14:14.508Z,15.50
2023-03-31T10:16:48.411Z,15.90
2023-03-31T10:19:31.765Z,16.20
2023-03-31T10:22:05.984Z,16.70
2023-03-31T10:24:39.885Z,17.00
2023-03-31T10:27:25.779Z,17.40
2023-03-31T10:30:01.838Z,17.90
2023-03-31T10:32:29.406Z,18.10
2023-03-31T10:34:58.951Z,18.20
2023-03-31T10:37:28.561Z,18.50
2023-03-31T10:40:15.984Z,18.70
2023-03-31T10:42:47.542Z,18.90
2023-03-31T10:45:35.732Z,19.10
2023-03-31T10:48:04.432Z,19.00
2023-03-31T10:50:34.660Z,19.10
2023-03-31T10:53:05.042Z,19.20
2023-03-31T10:55:36.994Z,19.50
2023-03-31T10:58:18.998Z,19.30
2023-03-31T11:01:08.201Z,19.40
2023-03-31T11:04:18.735Z,19.50
2023-03-31T11:07:24.407Z,19.50
2023-03-31T11:10:31.908Z,19.50
2023-03-31T11:13:23.953Z,19.60
2023-03-31T11:15:57.266Z,19.70
2023-03-31T11:18:36.986Z,19.70
2023-03-31T11:21:48.700Z,19.50
2023-03-31T11:24:35.197Z,19.20
2023-03-31T11:27:29.541Z,19.00
2023-03-31T11:30:17.683Z,18.90
2023-03-31T11:32:50.655Z,18.80
2023-03-31T11:35:43.880Z,18.40
2023-03-31T11:38:47.361Z,18.20
2023-03-31T11:41:25.111Z,18.00
2023-03-31T11:43:55.665Z,18.00
2023-03-31T11:46:27.845Z,18.30
2023-03-31T11:48:59.825Z,18.40
2023-03-31T11:51:52.134Z,18.20
2023-03-31T11:55:15.620Z,18.00
2023-03-31T11:57:47.832Z,17.80
2023-03-31T12:00:34.856Z,17.70
2023-03-31T12:03:20.810Z,17.80
2023-03-31T12:06:03.965Z,17.90
2023-03-31T12:08:50.301Z,17.70
2023-03-31T12:11:22.595Z,17.40
2023-03-31T12:13:57.395Z,17.20
2023-03-31T12:16:37.772Z,17.00
2023-03-31T12:19:17.489Z,16.90
2023-03-31T12:22:16.966Z,17.20
2023-03-31T12:24:44.851Z,17.20
2023-03-31T12:27:32.816Z,17.20
2023-03-31T12:30:05.179Z,17.30
2023-03-31T12:32:36.523Z,17.60
2023-03-31T12:35:25.189Z,17.80
2023-03-31T12:38:11.227Z,17.70
2023-03-31T12:40:49.640Z,17.50
2023-03-31T12:43:41.746Z,17.50
2023-03-31T12:46:52.285Z,17.30
2023-03-31T12:49:50.604Z,17.10
2023-03-31T12:52:45.502Z,16.70
2023-03-31T12:55:38.647Z,16.40
2023-03-31T12:58:34.038Z,16.20
2023-03-31T13:01:17.131Z,16.20
2023-03-31T13:03:47.846Z,16.30
2023-03-31T13:06:30.549Z,16.30
2023-03-31T13:09:20.836Z,16.20
2023-03-31T13:11:48.852Z,16.20
2023-03-31T13:14:23.967Z,16.20
2023-03-31T13:16:56.214Z,16.20
2023-03-31T13:19:32.422Z,16.30
2023-03-31T13:22:01.797Z,16.60
2023-03-31T13:24:31.454Z,16.90
2023-03-31T13:27:19.694Z,17.30
2023-03-31T13:29:47.063Z,17.60
2023-03-31T13:32:25.666Z,17.90
2023-03-31T13:35:05.715Z,18.00
2023-03-31T13:38:16.072Z,18.00
2023-03-31T13:40:58.819Z,18.20
2023-03-31T13:44:30.477Z,18.60
2023-03-31T13:47:37.891Z,18.70
2023-03-31T13:50:32.634Z,18.60
2023-03-31T13:53:11.714Z,18.40
2023-03-31T13:56:20.007Z,18.00
2023-03-31T13:59:25.090Z,17.60
2023-03-31T14:01:52.112Z,17.30
2023-03-31T14:04:47.330Z,17.00
2023-03-31T14:07:20.780Z,16.70
2023-03-31T14:09:51.900Z,16.40
2023-03-31T14:12:20.703Z,16.20
2023-03-31T14:14:49.058Z,16.20
2023-03-31T14:17:16.271Z,16.20
2023-03-31T14:19:55.674Z,16.30
2023-03-31T14:22:22.815Z,16.30
2023-03-31T14:25:13.988Z,16.40
2023-03-31T14:28:13.675Z,16.30
2023-03-31T14:31:05.095Z,16.30
2023-03-31T14:33:32.288Z,16.20
2023-03-31T14:36:25.988Z,16.20
2023-03-31T14:38:53.039Z,16.10
2023-03-31T14:41:29.802Z,16.00
2023-03-31T14:44:00.875Z,15.90
2023-03-31T14:46:34.817Z,15.80
2023-03-31T14:49:26.421Z,15.80
2023-03-31T14:51:56.320Z,15.50
2023-03-31T14:54:23.464Z,15.20
2023-03-31T14:56:55.071Z,15.00
2023-03-31T14:59:27.678Z,14.70
2023-03-31T15:01:56.695Z,14.40
2023-03-31T15:04:39.565Z,14.00
2023-03-31T15:07:10.262Z,13.60
2023-03-31T15:09:38.362Z,13.10
2023-03-31T15:12:13.623Z,12.50
2023-03-31T15:14:48.204Z,12.10
2023-03-31T15:17:20.984Z,11.80
2023-03-31T15:19:57.245Z,11.50
2023-03-31T15:22:27.752Z,11.30
2023-03-31T15:24:55.438Z,11.00
2023-03-31T15:27:41.137Z,10.80
2023-03-31T15:30:21.613Z,10.80
2023-03-31T15:32:49.267Z,10.70
2023-03-31T15:35:34.337Z,10.80
2023-03-31T15:38:05.302Z,10.80
2023-03-31T15:40:37.740Z,10.80
2023-03-31T15:43:25.493Z,10.80
2023-03-31T15:45:57.690Z,10.70
2023-03-31T15:48:53.205Z,10.70
2023-03-31T15:51:38.104Z,10.60
2023-03-31T15:54:33.953Z,10.40
2023-03-31T15:57:03.258Z,10.30
2023-03-31T15:59:54.815Z,10.30
2023-03-31T16:02:38.249Z,10.30
2023-03-31T16:05:10.955Z,10.30
2023-03-31T16:07:48.009Z,10.30
2023-03-31T16:10:23.192Z,10.30
2023-03-31T16:12:55.438Z,10.30
2023-03-31T16:15:37.319Z,10.30
2023-03-31T16:18:24.798Z,10.30
2023-03-31T16:20:57.732Z,10.30
2023-03-31T16:23:28.244Z,10.30
2023-03-31T16:25:56.468Z,10.40
2023-03-31T16:28:30.563Z,10.40
2023-03-31T16:31:01.814Z,10.40
2023-03-31T16:33:31.445Z,10.30
2023-03-31T16:36:02.990Z,10.30
2023-03-31T16:38:30.448Z,10.20
2023-03-31T16:40:59.118Z,10.20
2023-03-31T16:43:31.547Z,10.10
2023-03-31T16:46:01.609Z,10.20
2023-03-31T16:48:30.119Z,10.10
2023-03-31T16:51:00.348Z,10.10
2023-03-31T16:53:29.852Z,10.10
2023-03-31T16:55:58.220Z,10.10
2023-03-31T16:58:26.347Z,10.10
2023-03-31T17:00:54.133Z,10.10
2023-03-31T17:03:22.316Z,10.10
2023-03-31T17:05:53.011Z,10.10
2023-03-31T17:08:22.166Z,10.00
2023-03-31T17:10:53.550Z,10.00
2023-03-31T17:13:21.107Z,10.00
2023-03-31T17:15:49.564Z,10.00
2023-03-31T17:18:17.825Z,10.00
2023-03-31T17:20:45.698Z,10.00
2023-03-31T17:23:12.948Z,10.00
2023-03-31T17:25:50.463Z,9.90
2023-03-31T17:28:18.477Z,9.90
2023-03-31T17:30:48.054Z,9.90
2023-03-31T17:33:16.244Z,9.90
2023-03-31T17:35:44.034Z,9.90
2023-03-31T17:38:14.282Z,9.90
2023-03-31T17:40:41.731Z,9.90
2023-03-31T17:43:08.855Z,9.90
2023-03-31T17:45:36.667Z,9.90
2023-03-31T17:48:06.059Z,9.90
2023-03-31T17:50:33.360Z,9.80
2023-03-31T17:53:01.467Z,9.80
2023-03-31T17:55:29.117Z,9.80
2023-03-31T17:57:56.492Z,9.80
2023-03-31T18:00:24.041Z,9.70
2023-03-31T18:02:51.363Z,9.70
2023-03-31T18:05:19.761Z,9.70
2023-03-31T18:07:47.369Z,9.70
2023-03-31T18:10:14.775Z,9.80
2023-03-31T18:12:41.706Z,9.70
2023-03-31T18:15:10.910Z,9.70
2023-03-31T18:17:38.081Z,9.70
2023-03-31T18:20:06.174Z,9.70
2023-03-31T18:22:33.230Z,9.70
2023-03-31T18:25:00.531Z,9.70
2023-03-31T18:27:27.566Z,9.70
2023-03-31T18:29:55.509Z,9.70
2023-03-31T18:32:22.785Z,9.70
2023-03-31T18:34:50.217Z,9.70
2023-03-31T18:37:17.226Z,9.60
2023-03-31T18:39:44.758Z,9.60
2023-03-31T18:42:12.114Z,9.60
2023-03-31T18:44:39.876Z,9.60
2023-03-31T18:47:07.243Z,9.50
2023-03-31T18:49:35.198Z,9.50
2023-03-31T18:52:04.341Z,9.60
2023-03-31T18:54:31.965Z,9.60
2023-03-31T18:56:59.081Z,9.50
2023-03-31T18:59:26.381Z,9.50
2023-03-31T19:01:53.550Z,9.50
2023-03-31T19:04:21.191Z,9.50
2023-03-31T19:06:48.185Z,9.40
2023-03-31T19:09:17.291Z,9.40
2023-03-31T19:11:46.630Z,9.40
2023-03-31T19:14:14.347Z,9.40
2023-03-31T19:16:43.628Z,9.40
2023-03-31T19:19:12.110Z,9.30
2023-03-31T19:21:39.619Z,9.30
2023-03-31T19:24:07.104Z,9.20
2023-03-31T19:26:34.357Z,9.30
2023-03-31T19:29:05.109Z,9.20
2023-03-31T19:31:38.639Z,9.20
2023-03-31T19:34:07.998Z,9.20
2023-03-31T19:36:35.552Z,9.20
2023-03-31T19:39:06.329Z,9.20
2023-03-31T19:41:34.808Z,9.20
2023-03-31T19:44:02.232Z,9.20
2023-03-31T19:46:29.335Z,9.10
2023-03-31T19:48:57.076Z,9.10
2023-03-31T19:51:24.109Z,9.20
2023-03-31T19:53:52.000Z,9.20
2023-03-31T19:56:19.208Z,9.20
2023-03-31T19:58:47.169Z,9.20
2023-03-31T20:01:17.798Z,9.10
2023-03-31T20:03:46.222Z,9.20
2023-03-31T20:06:14.703Z,9.10
2023-03-31T20:08:43.090Z,9.20
2023-03-31T20:11:12.324Z,9.20
2023-03-31T20:13:42.041Z,9.20
2023-03-31T20:16:14.862Z,9.20
2023-03-31T20:18:47.781Z,9.20
2023-03-31T20:21:17.373Z,9.20
2023-03-31T20:23:45.476Z,9.20
2023-03-31T20:26:15.545Z,9.10
2023-03-31T20:28:43.269Z,9.20
2023-03-31T20:31:13.218Z,9.10
2023-03-31T20:33:41.993Z,9.10
2023-03-31T20:36:17.689Z,9.20
2023-03-31T20:38:47.347Z,9.10
2023-03-31T20:41:15.735Z,9.10
2023-03-31T20:43:43.049Z,9.20
2023-03-31T20:46:10.661Z,9.20
2023-03-31T20:48:39.951Z,9.20
2023-03-31T20:51:09.839Z,9.20
2023-03-31T20:53:43.544Z,9.20
2023-03-31T20:56:11.476Z,9.20
2023-03-31T20:58:40.108Z,9.20
2023-03-31T21:01:09.132Z,9.20
2023-03-31T21:03:36.587Z,9.20
2023-03-31T21:06:06.215Z,9.20
2023-03-31T21:08:39.751Z,9.20
2023-03-31T21:11:07.407Z,9.20
2023-03-31T21:13:35.524Z,9.20
2023-03-31T21:16:04.331Z,9.20
2023-03-31T21:18:33.836Z,9.30
2023-03-31T21:21:03.359Z,9.30
2023-03-31T21:23:31.136Z,9.30
2023-03-31T21:26:00.981Z,9.30
2023-03-31T21:28:31.005Z,9.30
2023-03-31T21:31:06.409Z,9.20
2023-03-31T21:33:37.840Z,9.20
2023-03-31T21:36:07.944Z,9.20
2023-03-31T21:38:36.296Z,9.20
2023-03-31T21:41:12.196Z,9.20
2023-03-31T21:43:39.596Z,9.20
2023-03-31T21:46:07.958Z,9.20
2023-03-31T21:48:35.703Z,9.20
2023-03-31T21:51:03.190Z,9.20
2023-03-31T21:53:31.807Z,9.10
2023-03-31T21:55:59.492Z,9.10
2023-03-31T21:58:29.123Z,9.20
2023-03-31T22:00:57.582Z,9.10
2023-03-31T22:03:28.763Z,9.10
2023-03-31T22:05:56.731Z,9.10
2023-03-31T22:08:25.425Z,9.10
2023-03-31T22:10:53.139Z,9.10
2023-03-31T22:13:22.185Z,9.10
2023-03-31T22:15:49.509Z,9.00
2023-03-31T22:18:17.613Z,9.10
2023-03-31T22:20:46.154Z,9.00
2023-03-31T22:23:13.791Z,9.00
2023-03-31T22:25:41.245Z,8.90
2023-03-31T22:28:09.434Z,8.90
2023-03-31T22:30:36.796Z,8.90
2023-03-31T22:33:04.356Z,8.80
2023-03-31T22:35:31.758Z,8.90
2023-03-31T22:37:59.248Z,8.90
2023-03-31T22:40:29.124Z,8.80
2023-03-31T22:42:58.403Z,8.90
2023-03-31T22:45:25.712Z,8.80
2023-03-31T22:47:53.328Z,8.80
2023-03-31T22:50:20.440Z,8.80
2023-03-31T22:52:48.063Z,8.80
2023-03-31T22:55:15.042Z,8.80
2023-03-31T22:57:42.798Z,8.80
2023-03-31T23:00:10.577Z,8.80
2023-03-31T23:02:37.862Z,8.80
2023-03-31T23:05:05.916Z,8.80
2023-03-31T23:07:33.479Z,8.80
2023-03-31T23:10:00.620Z,8.80
2023-03-31T23:12:28.606Z,8.80
2023-03-31T23:14:56.093Z,8.70
2023-03-31T23:17:23.709Z,8.70
2023-03-31T23:19:51.316Z,8.80
2023-03-31T23:22:19.065Z,8.70
2023-03-31T23:24:48.229Z,8.70
2023-03-31T23:27:15.750Z,8.80
2023-03-31T23:29:42.714Z,8.80
2023-03-31T23:32:10.138Z,8.70
2023-03-31T23:34:41.664Z,8.70
2023-03-31T23:37:11.055Z,8.70
2023-03-31T23:39:39.014Z,8.70
2023-03-31T23:42:07.409Z,8.70
2023-03-31T23:44:39.093Z,8.70
2023-03-31T23:47:06.524Z,8.70
2023-03-31T23:49:33.687Z,8.70
2023-03-31T23:52:01.364Z,8.70
2023-03-31T23:54:28.870Z,8.70
2023-03-31T23:56:56.489Z,8.70
2023-03-31T23:59:23.550Z,8.60
